Time;durP1;ratioP1;P1;durP2;ratioP2;P2;SDS_P1;SDS_P2;PMS_P1;PMS_P2;Temp;Humidity;BMP_temperature;BMP_pressure;BME280_temperature;BME280_humidity;BME280_pressure;Samples;Min_cycle;Max_cycle;Signal;HPM_P1;HPM_P2
2024/04/21 00:04:49;;;;;;;15.40;6.25;;;0.70;99.90;;;-0.92;81.50;101750.16;4987483;28;20026;-81
2024/04/21 00:07:18;;;;;;;8.02;4.45;;;0.70;99.90;;;-0.89;81.14;101752.78;5016323;27;20459;-84
2024/04/21 00:10:09;;;;;;;12.38;5.47;;;0.60;99.90;;;-0.91;81.62;101754.47;5001374;28;20065;-84
2024/04/21 00:12:37;;;;;;;8.20;4.60;;;0.60;99.90;;;-0.91;82.04;101757.03;4997503;27;20049;-84
2024/04/21 00:15:18;;;;;;;8.27;4.40;;;0.60;99.90;;;-0.95;81.78;101752.66;5009043;28;20015;-85
2024/04/21 00:17:56;;;;;;;7.32;4.00;;;;;;;-0.94;81.83;101759.59;4981506;28;20010;-83
2024/04/21 00:20:24;;;;;;;11.18;4.30;;;0.60;99.90;;;-0.95;81.42;101769.06;5029307;28;20011;-83
2024/04/21 00:22:59;;;;;;;9.23;4.40;;;0.60;99.90;;;-0.93;81.94;101763.91;5044763;28;20014;-81
2024/04/21 00:25:28;;;;;;;7.65;4.68;;;0.60;99.90;;;-0.96;81.90;101761.28;5003856;27;20022;-85
2024/04/21 00:27:53;;;;;;;6.45;3.97;;;0.60;99.90;;;-0.95;82.17;101763.00;5009044;27;20115;-82
2024/04/21 00:30:38;;;;;;;;;;;;;;;;;;;;;
2024/04/21 00:33:07;;;;;;;13.05;4.00;;;0.60;99.90;;;-0.93;82.14;101766.50;4963351;27;20949;-84
2024/04/21 00:36:04;;;;;;;26.23;9.45;;;0.60;99.90;;;-0.92;82.15;101763.06;5108917;27;20003;-86
2024/04/21 00:38:30;;;;;;;55.22;18.27;;;0.60;99.90;;;-0.94;82.42;101760.47;5207351;27;20014;-82
2024/04/21 00:40:56;;;;;;;11.57;5.10;;;0.60;99.90;;;-0.94;81.92;101770.78;5157202;27;20492;-81
2024/04/21 00:46:17;;;;;;;7.63;4.22;;;;;;;-0.95;82.48;101765.59;5073125;27;20071;-82
2024/04/21 00:48:50;;;;;;;7.88;4.07;;;0.60;99.90;;;-0.98;82.52;101773.31;5055074;27;20017;-82
2024/04/21 00:51:20;;;;;;;7.25;4.00;;;0.60;99.90;;;-1.00;82.14;101772.41;5049469;27;20054;-81
2024/04/21 00:53:55;;;;;;;7.38;3.50;;;;;;;-1.04;82.02;101777.53;4980101;27;20025;-83
2024/04/21 00:56:23;;;;;;;41.53;16.95;;;0.50;99.90;;;-1.10;82.56;101769.66;5056426;27;20014;-82
2024/04/21 00:59:01;;;;;;;15.15;5.90;;;0.50;99.90;;;-1.14;82.23;101767.00;5085092;27;20025;-84
2024/04/21 01:01:27;;;;;;;12.75;4.13;;;0.40;99.90;;;-1.21;82.08;101768.56;5097849;27;20064;-84
2024/04/21 01:03:53;;;;;;;4.38;2.65;;;0.40;99.90;;;-1.28;81.47;101770.19;5128055;27;20020;-83
2024/04/21 01:06:48;;;;;;;4.50;2.70;;;0.30;99.90;;;-1.36;81.84;101773.47;5132113;27;20028;-81
2024/04/21 01:09:37;;;;;;;19.73;8.20;;;0.20;99.90;;;-1.43;81.97;101779.34;5051618;27;20015;-83
2024/04/21 01:12:08;;;;;;;15.98;6.13;;;0.10;99.90;;;-1.51;81.68;101779.19;5043813;27;20023;-82
2024/04/21 01:14:34;;;;;;;13.00;6.22;;;0.10;99.90;;;-1.52;81.82;101785.22;5071128;27;20027;-85
2024/04/21 01:17:43;;;;;;;13.70;6.03;;;0.10;99.90;;;-1.52;82.39;101783.50;4984117;27;20009;-83
2024/04/21 01:20:23;;;;;;;180.25;67.47;;;;;;;-1.52;82.26;101775.75;4886151;28;20095;-83
2024/04/21 01:22:49;;;;;;;393.40;130.15;;;0.10;99.90;;;-1.51;82.58;101785.25;4948237;28;20024;-83
2024/04/21 01:25:28;;;;;;;366.05;122.78;;;0.10;99.90;;;-1.49;82.75;101783.56;4980012;28;20015;-82
2024/04/21 01:27:55;;;;;;;237.65;82.75;;;0.10;99.90;;;-1.47;83.00;101787.06;4917223;28;20056;-84
2024/04/21 01:30:29;;;;;;;43.47;18.70;;;0.10;99.90;;;-1.49;82.91;101783.56;4934596;28;20011;-83
2024/04/21 01:32:58;;;;;;;25.50;10.20;;;0.00;99.90;;;-1.54;82.93;101785.19;4958352;27;20028;-85
2024/04/21 01:35:48;;;;;;;8.65;4.53;;;0.00;99.90;;;-1.58;82.83;101782.50;5007316;28;20019;-85
2024/04/21 01:38:17;;;;;;;7.45;3.58;;;0.00;99.90;;;-1.71;83.20;101778.81;4988393;27;20014;-81
2024/04/21 01:40:54;;;;;;;6.75;3.67;;;-0.10;99.90;;;-1.73;82.99;101790.81;4980868;28;20032;-81
2024/04/21 01:43:20;;;;;;;9.30;4.45;;;-0.10;99.90;;;-1.82;82.81;101785.47;4954148;28;20022;-83
2024/04/21 01:45:46;;;;;;;11.25;4.43;;;;;;;-1.80;83.30;101791.53;4936858;28;20015;-83
2024/04/21 01:48:21;;;;;;;58.28;25.50;;;-0.20;99.90;;;-1.78;83.23;101787.25;4982540;28;20076;-81
2024/04/21 01:50:48;;;;;;;86.20;35.80;;;-0.20;99.90;;;-1.75;83.83;101795.06;4961243;28;20540;-81
2024/04/21 01:53:13;;;;;;;17.90;7.78;;;-0.20;99.90;;;-1.72;83.67;101797.72;4996644;28;20292;-85
2024/04/21 01:56:08;;;;;;;7.85;4.68;;;-0.20;99.90;;;-1.72;84.32;101800.31;4957232;28;20030;-83
2024/04/21 01:58:45;;;;;;;9.90;3.80;;;-0.10;99.90;;;-1.72;84.28;101802.91;4928724;28;20016;-85
2024/04/21 02:01:11;;;;;;;7.72;3.80;;;-0.20;99.90;;;-1.75;84.08;101808.88;5022804;27;20337;-83
2024/04/21 02:04:04;;;;;;;7.88;3.42;;;-0.20;99.90;;;-1.82;83.97;101809.56;5036176;28;20033;-83
2024/04/21 02:06:30;;;;;;;7.97;3.88;;;-0.20;99.90;;;-1.87;83.72;101803.44;5015911;28;20103;-85
2024/04/21 02:08:58;;;;;;;25.90;11.20;;;-0.30;99.90;;;-1.90;83.97;101805.94;5000116;28;20025;-84
2024/04/21 02:12:02;;;;;;;11.23;6.00;;;-0.30;99.90;;;-1.89;83.63;101802.53;4992135;27;20016;-84
2024/04/21 02:14:27;;;;;;;9.70;4.57;;;-0.30;99.90;;;-1.90;84.02;101806.81;4906962;28;20015;-83
2024/04/21 02:16:53;;;;;;;8.05;3.90;;;-0.30;99.90;;;-1.91;84.31;101812.81;4922556;28;20020;-83
2024/04/21 02:19:19;;;;;;;7.22;3.70;;;-0.30;99.90;;;-1.94;83.97;101810.19;4938751;28;20013;-84
2024/04/21 02:22:26;;;;;;;7.55;4.20;;;-0.40;99.90;;;-1.97;84.59;101810.09;4954099;28;20009;-84
2024/04/21 02:24:52;;;;;;;11.50;4.83;;;-0.40;99.90;;;-1.98;84.44;101812.66;4920394;28;20022;-83
2024/04/21 02:27:18;;;;;;;7.78;4.53;;;-0.40;99.90;;;-1.98;84.46;101807.50;4845840;28;20257;-83
2024/04/21 02:29:46;;;;;;;8.65;4.80;;;-0.40;99.90;;;-1.97;84.78;101812.66;4842458;29;20017;-83
2024/04/21 02:32:32;;;;;;;8.05;4.82;;;-0.40;99.90;;;-1.94;84.51;101817.06;4861858;29;20020;-83
2024/04/21 02:34:58;;;;;;;11.50;4.75;;;-0.40;99.90;;;-1.94;84.66;101815.34;4892962;28;20050;-82
2024/04/21 02:37:27;;;;;;;9.52;5.25;;;-0.30;99.90;;;-1.93;85.00;101822.22;4926008;28;20047;-83
2024/04/21 02:40:00;;;;;;;10.77;5.25;;;-0.30;99.90;;;-1.92;85.37;101818.81;4940788;28;20019;-85
2024/04/21 02:42:25;;;;;;;13.95;5.88;;;-0.30;99.90;;;-1.89;85.32;101818.88;4922780;28;20385;-83
2024/04/21 02:44:51;;;;;;;12.88;5.55;;;-0.30;99.90;;;-1.86;85.35;101821.56;4928700;28;20055;-82
2024/04/21 02:47:17;;;;;;;7.47;4.35;;;-0.30;99.90;;;-1.84;85.36;101821.56;4982574;28;20385;-83
2024/04/21 02:49:43;;;;;;;6.25;3.72;;;-0.30;99.90;;;-1.86;85.31;101821.56;4942021;28;20039;-83
2024/04/21 02:52:09;;;;;;;7.43;4.18;;;-0.30;99.90;;;-1.91;86.02;101819.69;4973531;28;20031;-83
2024/04/21 02:54:40;;;;;;;4.75;2.90;;;-0.30;99.90;;;-1.95;85.89;101825.63;4944685;28;20022;-84
2024/04/21 02:57:06;;;;;;;7.78;3.88;;;-0.40;99.90;;;-2.00;85.61;101827.25;4950573;28;20008;-84
2024/04/21 02:59:42;;;;;;;;;;;;;;;;;;;;;
2024/04/21 03:02:13;;;;;;;11.88;4.40;;;-0.40;99.90;;;-2.10;85.66;101819.25;5019501;27;20009;-83
2024/04/21 03:04:38;;;;;;;9.68;3.95;;;-0.50;99.90;;;-2.10;86.03;101827.00;5011458;27;20043;-83
2024/04/21 03:07:04;;;;;;;9.95;4.82;;;-0.50;99.90;;;-2.12;85.66;101828.69;5046046;27;20705;-83
2024/04/21 03:09:30;;;;;;;7.97;5.05;;;-0.50;99.90;;;-2.10;86.03;101834.75;5061593;27;20013;-82
2024/04/21 03:12:16;;;;;;;8.15;4.30;;;-0.50;99.90;;;-2.12;86.02;101830.41;5061892;27;20016;-83
2024/04/21 03:14:47;;;;;;;8.93;4.57;;;-0.60;99.90;;;-2.16;86.28;101828.56;5238522;22;21053;-84
2024/04/21 03:17:14;;;;;;;11.93;4.45;;;-0.50;99.90;;;-2.18;86.19;101833.72;5136387;27;20022;-85
2024/04/21 03:19:50;;;;;;;7.70;4.40;;;-0.60;99.90;;;-2.20;86.15;101834.50;5151936;27;20092;-83
2024/04/21 03:22:17;;;;;;;9.20;4.85;;;-0.60;99.90;;;-2.20;86.26;101834.50;5152192;27;20473;-84
2024/04/21 03:25:21;;;;;;;9.82;4.80;;;-0.60;99.90;;;-2.20;86.30;101834.50;5127932;27;20028;-84
2024/04/21 03:27:47;;;;;;;14.25;4.60;;;-0.60;99.90;;;-2.26;85.92;101827.50;4998467;27;20010;-83
2024/04/21 03:30:15;;;;;;;9.20;4.45;;;-0.60;99.90;;;-2.26;86.54;101837.81;5004665;27;20081;-84
2024/04/21 03:32:41;;;;;;;8.93;4.80;;;-0.70;99.90;;;-2.29;86.60;101842.91;5004366;28;20058;-82
2024/04/21 03:35:18;;;;;;;7.18;4.03;;;-0.70;99.90;;;-2.35;86.31;101838.47;4993965;27;20017;-83
2024/04/21 03:37:44;;;;;;;6.68;3.55;;;-0.70;99.90;;;-2.44;86.00;101834.78;5028600;28;20014;-84
2024/04/21 03:40:10;;;;;;;7.68;3.78;;;-0.80;99.90;;;-2.51;85.95;101842.38;5021427;28;20006;-83
2024/04/21 03:42:41;;;;;;;6.30;3.67;;;-0.90;99.90;;;-2.59;86.35;101838.75;5016274;28;20007;-85
2024/04/21 03:45:08;;;;;;;7.20;4.10;;;-0.90;99.90;;;-2.66;85.99;101836.84;5025921;28;20050;-83
2024/04/21 03:47:37;;;;;;;12.65;5.25;;;-1.00;99.90;;;-2.69;86.42;101829.91;5030120;27;20014;-84
2024/04/21 03:50:08;;;;;;;11.10;5.93;;;-1.00;99.90;;;-2.65;86.73;101842.88;5019514;28;20408;-84
2024/04/21 03:52:34;;;;;;;10.23;4.55;;;-1.00;99.90;;;-2.64;86.48;101839.47;5022636;28;20014;-85
2024/04/21 03:55:00;;;;;;;10.27;5.22;;;-1.00;99.90;;;-2.62;86.68;101836.06;5039929;28;20022;-83
2024/04/21 03:57:29;;;;;;;9.43;4.57;;;-1.00;99.90;;;-2.60;87.26;101836.13;5001394;28;20473;-85
2024/04/21 04:00:05;;;;;;;8.60;3.80;;;-1.00;99.90;;;-2.57;87.17;101854.25;5032922;27;20029;-85
2024/04/21 04:02:31;;;;;;;7.93;4.07;;;-1.00;99.90;;;-2.62;86.85;101850.69;5020212;28;20011;-82
2024/04/21 04:04:56;;;;;;;8.68;4.35;;;-1.00;99.90;;;-2.67;87.25;101853.16;4979142;28;20087;-83
2024/04/21 04:07:31;;;;;;;9.30;4.65;;;-1.00;99.90;;;-2.73;86.76;101853.84;5008724;28;20467;-84
2024/04/21 04:09:57;;;;;;;8.13;4.35;;;-1.10;99.90;;;-2.80;87.48;101864.84;5085807;27;20012;-83
2024/04/21 04:12:25;;;;;;;8.80;4.90;;;-1.10;99.90;;;-2.83;87.54;101866.47;5137035;27;20094;-83
2024/04/21 04:15:14;;;;;;;15.10;5.80;;;-1.10;99.90;;;-2.76;88.03;101873.53;5144823;27;20016;-82
2024/04/21 04:17:40;;;;;;;9.90;5.10;;;-1.00;99.90;;;-2.71;88.87;101867.66;5133467;27;20016;-83
2024/04/21 04:20:09;;;;;;;15.82;5.45;;;-1.00;99.90;;;-2.61;89.55;101884.25;5103676;27;20016;-83
2024/04/21 04:22:42;;;;;;;9.68;5.30;;;-0.90;99.90;;;-2.57;89.68;101882.59;5101278;27;20009;-83
2024/04/21 04:25:09;;;;;;;8.60;4.65;;;-0.90;99.90;;;-2.60;89.75;101893.72;5118477;27;20534;-83
2024/04/21 04:27:35;;;;;;;8.00;4.50;;;;;;;-2.60;89.78;101895.44;5170027;27;20012;-82
2024/04/21 04:30:01;;;;;;;8.25;4.35;;;-0.90;99.90;;;-2.61;89.89;101888.50;5158757;27;20051;-82
2024/04/21 04:32:35;;;;;;;9.38;4.88;;;-0.90;99.90;;;-2.58;90.18;101888.63;5128708;27;20053;-83
2024/04/21 04:35:01;;;;;;;8.98;4.35;;;-0.90;99.90;;;-2.55;89.65;101887.00;5123681;22;20051;-83
2024/04/21 04:37:27;;;;;;;8.23;4.47;;;-0.90;99.90;;;-2.51;90.00;101893.09;5100518;27;20347;-84
2024/04/21 04:39:54;;;;;;;9.70;4.72;;;-0.90;99.90;;;-2.48;89.45;101888.03;5112247;27;20034;-85
2024/04/21 04:42:27;;;;;;;9.00;4.50;;;-0.90;99.90;;;-2.49;89.72;101896.56;5108015;27;20012;-83
2024/04/21 04:44:52;;;;;;;10.35;4.85;;;-0.90;99.90;;;-2.50;89.58;101885.41;5126771;27;20092;-85
2024/04/21 04:47:18;;;;;;;7.60;4.25;;;-0.80;99.90;;;-2.45;89.37;101892.38;5072939;27;20365;-82
2024/04/21 04:49:44;;;;;;;11.68;5.00;;;-0.80;99.90;;;-2.39;89.50;101900.28;5084238;27;20072;-84
2024/04/21 04:52:10;;;;;;;9.73;5.18;;;-0.80;99.90;;;-2.34;89.44;101901.25;5083898;27;20008;-83
2024/04/21 04:54:41;;;;;;;11.98;6.00;;;;;;;-2.28;89.13;101902.28;5073195;27;20008;-83
2024/04/21 04:57:07;;;;;;;8.52;4.82;;;-0.70;99.90;;;-2.23;89.92;101904.09;5105933;27;20022;-83
2024/04/21 04:59:33;;;;;;;11.23;5.35;;;-0.60;99.90;;;-2.13;89.54;101911.25;5092228;27;20381;-84
2024/04/21 05:01:59;;;;;;;7.75;4.28;;;-0.50;99.90;;;-2.04;90.04;101916.63;5062555;27;20041;-83
2024/04/21 05:04:25;;;;;;;8.75;4.65;;;-0.40;99.90;;;-1.95;90.16;101911.66;5117925;27;20529;-83
2024/04/21 05:07:00;;;;;;;8.50;4.72;;;-0.30;99.90;;;-1.80;90.13;101911.16;5074354;27;20021;-82
2024/04/21 05:09:25;;;;;;;10.68;4.97;;;-0.20;99.90;;;-1.64;89.87;101920.16;5113194;27;20024;-85
2024/04/21 05:11:54;;;;;;;9.75;5.03;;;-0.10;99.90;;;-1.49;89.68;101917.91;5114949;27;20349;-83
2024/04/21 05:16:50;;;;;;;11.38;5.05;;;0.20;99.90;;;-1.13;89.65;101926.41;5167823;22;20023;-84
2024/04/21 05:19:16;;;;;;;9.88;4.97;;;;;;;-0.93;90.08;101931.97;5149680;27;20024;-85
2024/04/21 05:21:42;;;;;;;9.98;5.10;;;0.60;99.90;;;-0.72;89.69;101937.56;5116190;27;20048;-83
2024/04/21 05:24:08;;;;;;;10.02;4.55;;;0.80;99.90;;;-0.50;89.38;101938.84;5135157;27;20056;-82
2024/04/21 05:26:46;;;;;;;;;;;;;;;;;;;;;
2024/04/21 05:29:12;;;;;;;8.43;4.70;;;1.20;99.90;;;-0.06;88.83;101951.69;5139328;27;20872;-81
2024/04/21 05:31:38;;;;;;;9.20;4.75;;;1.30;99.90;;;0.12;88.74;101947.66;5049210;27;20365;-81
2024/04/21 05:34:13;;;;;;;7.75;4.50;;;1.60;99.90;;;0.36;88.27;101958.41;5169867;27;20008;-84
2024/04/21 05:36:39;;;;;;;7.43;4.60;;;1.70;99.90;;;0.55;88.17;101953.50;5095302;27;20023;-83
2024/04/21 05:39:05;;;;;;;9.98;5.50;;;1.90;99.90;;;0.69;87.77;101957.16;5161175;27;20715;-83
2024/04/21 05:41:36;;;;;;;9.70;5.03;;;2.10;99.90;;;0.81;87.43;101959.03;5085654;27;20037;-83
2024/04/21 05:44:08;;;;;;;9.07;5.22;;;2.20;99.90;;;0.94;87.10;101970.44;5140430;27;20003;-85
2024/04/21 05:46:34;;;;;;;8.85;4.90;;;2.30;99.90;;;1.03;87.04;101966.25;5073045;27;20079;-83
2024/04/21 05:49:08;;;;;;;10.43;5.28;;;2.50;99.90;;;1.20;87.00;101970.78;5129355;27;20020;-83
2024/04/21 05:51:37;;;;;;;10.75;5.45;;;;;;;1.41;86.88;101976.22;5066465;27;20024;-82
2024/04/21 05:54:13;;;;;;;8.95;5.85;;;2.50;99.90;;;1.67;86.69;101972.16;5098074;27;20020;-84
2024/04/21 05:56:39;;;;;;;9.80;5.68;;;3.00;99.90;;;1.93;86.51;101983.66;5072456;27;20002;-83
2024/04/21 05:59:05;;;;;;;9.10;5.60;;;3.30;99.90;;;2.15;86.59;101983.84;5147162;27;20054;-80
2024/04/21 06:01:36;;;;;;;15.13;6.50;;;3.50;99.90;;;2.40;86.69;101992.72;5111300;27;19999;-81
2024/04/21 06:04:02;;;;;;;13.25;5.72;;;3.70;99.90;;;2.69;86.69;101997.25;5144865;27;20043;-83
2024/04/21 06:06:28;;;;;;;11.55;6.38;;;4.00;99.90;;;2.93;86.53;102004.31;5181291;27;20010;-80
2024/04/21 06:08:54;;;;;;;9.73;6.25;;;4.20;99.90;;;3.14;86.95;102008.78;5117156;27;20058;-82
2024/04/21 06:11:19;;;;;;;11.15;6.55;;;4.50;99.90;;;3.33;86.76;102015.78;5133324;27;20015;-81
2024/04/21 06:13:52;;;;;;;7.03;3.90;;;4.60;99.90;;;3.37;86.51;102012.34;5119843;27;20007;-83
2024/04/21 06:16:18;;;;;;;10.13;4.22;;;4.70;99.90;;;3.36;85.10;102017.53;5180854;22;20024;-81
2024/04/21 06:18:44;;;;;;;6.25;3.55;;;4.70;99.90;;;3.35;83.58;102019.28;5135645;27;20012;-84
2024/04/21 06:21:10;;;;;;;8.52;4.13;;;4.80;99.90;;;3.39;83.28;102015.81;5150604;27;20027;-81
2024/04/21 06:23:36;;;;;;;7.20;4.40;;;4.90;99.90;;;3.49;82.88;102021.91;5177997;27;20023;-84
2024/04/21 06:26:02;;;;;;;6.60;4.07;;;4.90;99.90;;;3.48;83.34;102023.66;5146921;27;20012;-81
2024/04/21 06:28:31;;;;;;;5.18;3.70;;;4.90;99.90;;;3.46;83.40;102017.56;5091620;27;20019;-81
2024/04/21 06:30:57;;;;;;;6.80;3.15;;;5.00;99.90;;;3.43;83.36;102014.94;5131463;27;20049;-80
2024/04/21 06:33:23;;;;;;;5.22;3.28;;;5.00;99.90;;;3.52;82.31;102019.34;5132463;27;20030;-80
2024/04/21 06:35:50;;;;;;;6.63;3.38;;;5.00;99.90;;;3.38;82.01;102024.47;5110682;27;20025;-80
2024/04/21 06:38:30;;;;;;;5.95;3.65;;;5.10;99.90;;;3.52;81.41;102021.06;5162251;27;20011;-82
2024/04/21 06:40:56;;;;;;;5.22;3.33;;;5.10;99.90;;;3.69;82.06;102019.38;5140835;27;20015;-82
2024/04/21 06:43:30;;;;;;;8.55;4.30;;;5.20;99.90;;;3.71;80.29;102017.63;5140030;27;20074;-82
2024/04/21 06:45:55;;;;;;;9.93;4.30;;;5.30;99.90;;;3.94;78.65;102028.13;5125080;27;20361;-80
2024/04/21 06:48:21;;;;;;;8.00;4.30;;;5.40;99.90;;;4.11;77.44;102043.78;5119957;27;20015;-80
2024/04/21 06:50:47;;;;;;;9.82;4.18;;;5.50;99.90;;;4.16;77.13;102038.56;5148993;27;20055;-79
2024/04/21 06:53:13;;;;;;;8.55;3.90;;;5.70;99.90;;;4.30;75.85;102042.06;5150570;27;20056;-80
2024/04/21 06:55:47;;;;;;;8.38;4.00;;;5.80;99.90;;;4.55;75.85;102055.97;5130797;27;20012;-79
2024/04/21 06:58:13;;;;;;;10.00;4.90;;;6.00;99.90;;;4.85;75.72;102064.63;5131854;27;20507;-80
2024/04/21 07:00:40;;;;;;;7.30;3.85;;;6.20;99.90;;;5.13;76.01;102061.09;5145679;27;20009;-79
2024/04/21 07:03:15;;;;;;;5.20;3.28;;;6.50;99.90;;;5.56;76.04;102065.31;5138223;27;20015;-79
2024/04/21 07:05:41;;;;;;;5.70;2.60;;;6.80;99.90;;;5.78;74.78;102066.06;5102320;27;20013;-81
2024/04/21 07:08:07;;;;;;;5.57;3.17;;;7.10;99.90;;;6.01;71.33;102075.56;5154969;27;20012;-79
2024/04/21 07:10:32;;;;;;;4.90;2.95;;;7.30;99.90;;;6.32;71.40;102081.44;5151000;27;20185;-80
2024/04/21 07:13:00;;;;;;;4.60;2.80;;;7.50;99.90;;;6.37;69.95;102077.03;5139493;27;20008;-79
2024/04/21 07:15:29;;;;;;;3.83;2.25;;;7.60;99.90;;;6.25;69.81;102083.25;5082594;27;20001;-80
2024/04/21 07:17:55;;;;;;;4.72;2.78;;;7.60;99.90;;;6.20;69.13;102085.03;5133587;27;20462;-79
2024/04/21 07:20:21;;;;;;;6.93;2.80;;;7.60;99.90;;;6.25;69.54;102080.63;5166334;27;20074;-80
2024/04/21 07:22:47;;;;;;;7.18;3.17;;;7.70;99.90;;;6.36;69.73;102072.69;5123023;27;20028;-81
2024/04/21 07:25:14;;;;;;;3.97;2.58;;;7.70;99.90;;;6.34;69.08;102077.06;5086069;27;20003;-81
2024/04/21 07:27:48;;;;;;;4.22;2.80;;;7.80;99.90;;;6.40;68.22;102084.03;5097995;27;20015;-80
2024/04/21 07:30:14;;;;;;;6.30;2.60;;;7.80;99.90;;;6.43;67.31;102097.94;5152937;27;23153;-80
2024/04/21 07:32:39;;;;;;;4.50;2.65;;;8.00;99.90;;;6.85;68.00;102098.47;5124260;27;20027;-81
2024/04/21 07:35:15;;;;;;;3.35;2.05;;;8.20;99.90;;;7.38;68.28;102106.66;5114221;27;20438;-82
2024/04/21 07:37:41;;;;;;;3.33;2.30;;;8.50;99.90;;;7.46;64.79;102130.16;5162761;27;20016;-82
2024/04/21 07:40:08;;;;;;;3.83;2.10;;;8.70;99.90;;;7.34;63.78;102136.41;5137886;27;20391;-84
2024/04/21 07:42:34;;;;;;;6.18;2.45;;;8.70;99.90;;;7.32;63.85;102140.78;5155179;27;20017;-82
2024/04/21 07:45:05;;;;;;;3.65;1.98;;;8.70;99.90;;;7.29;64.18;102138.19;5112269;27;20013;-83
2024/04/21 07:47:34;;;;;;;3.25;2.03;;;8.70;99.90;;;7.43;63.53;102146.81;5132602;27;20468;-82
2024/04/21 07:50:02;;;;;;;4.10;2.30;;;8.70;99.90;;;7.19;64.31;102138.31;5114890;27;20087;-83
2024/04/21 07:52:33;;;;;;;6.30;2.25;;;8.70;99.90;;;7.21;64.19;102140.03;5110398;27;20456;-83
2024/04/21 07:54:59;;;;;;;4.35;2.30;;;8.70;99.90;;;7.22;64.37;102139.16;5104926;27;20009;-84
2024/04/21 07:57:27;;;;;;;4.97;2.70;;;8.80;99.90;;;7.49;63.93;102148.47;5086103;27;20111;-83
2024/04/21 07:59:59;;;;;;;7.50;2.83;;;8.90;99.90;;;7.62;63.32;102151.81;5074581;27;20016;-84
2024/04/21 08:02:25;;;;;;;4.03;2.58;;;8.90;99.90;;;7.60;63.57;102155.34;5115287;27;19997;-84
2024/04/21 08:04:51;;;;;;;3.50;2.30;;;9.00;99.90;;;7.86;63.11;102162.03;5141455;27;20112;-84
2024/04/21 08:07:17;;;;;;;4.05;2.22;;;9.20;99.90;;;7.89;63.33;102161.13;5099557;27;20004;-82
2024/04/21 08:09:43;;;;;;;5.80;2.40;;;9.30;99.90;;;8.22;62.51;102167.66;5100203;27;20020;-84
2024/04/21 08:12:08;;;;;;;4.63;2.47;;;9.50;99.90;;;8.31;61.96;102171.91;5097513;27;20008;-83
2024/04/21 08:14:40;;;;;;;3.58;2.25;;;9.60;99.90;;;8.57;62.37;102180.34;5128802;27;20000;-83
2024/04/21 08:17:06;;;;;;;3.58;2.17;;;9.80;99.90;;;8.40;62.48;102170.09;5100977;27;20007;-83
2024/04/21 08:19:34;;;;;;;3.47;2.05;;;;;;;8.61;61.52;102179.38;5119486;27;20011;-83
2024/04/21 08:22:00;;;;;;;4.93;2.50;;;9.90;99.90;;;8.62;61.24;102180.25;5134540;27;20502;-83
2024/04/21 08:24:26;;;;;;;3.10;2.10;;;10.00;99.90;;;8.85;61.57;102181.66;5147997;27;20064;-84
2024/04/21 08:26:59;;;;;;;4.05;1.90;;;10.20;99.90;;;8.97;62.85;102171.81;5131705;27;20021;-82
2024/04/21 08:29:25;;;;;;;3.45;1.83;;;10.30;99.90;;;8.97;60.71;102191.97;5153087;27;20020;-84
2024/04/21 08:31:51;;;;;;;5.32;2.58;;;10.30;99.90;;;8.14;61.50;102180.03;5094603;27;20190;-83
2024/04/21 08:34:17;;;;;;;3.42;2.20;;;9.90;99.90;;;8.21;61.06;102184.31;5133609;27;20429;-84
2024/04/21 08:36:50;;;;;;;2.95;2.50;;;9.80;99.90;;;8.32;62.13;102186.78;5137971;27;20124;-83
2024/04/21 08:39:18;;;;;;;4.00;2.20;;;9.80;99.90;;;8.49;62.29;102183.94;5061452;27;20448;-83
2024/04/21 08:41:58;;;;;;;;;;;;;;;;;;;;;
2024/04/21 08:44:25;;;;;;;3.63;2.20;;;10.20;99.90;;;9.04;62.03;102189.19;5124171;27;20732;-85
2024/04/21 08:46:59;;;;;;;4.38;2.22;;;10.30;99.90;;;8.61;62.58;102181.13;5162389;27;20564;-83
2024/04/21 08:49:28;;;;;;;3.58;2.60;;;;;;;8.48;61.65;102187.47;5053723;27;20009;-84
2024/04/21 08:52:00;;;;;;;5.40;2.58;;;10.00;99.90;;;8.30;62.12;102186.81;5098498;27;20098;-84
2024/04/21 08:54:28;;;;;;;4.15;2.45;;;9.80;99.90;;;8.13;63.72;102175.66;5105864;27;20022;-84
2024/04/21 08:57:07;;;;;;;5.03;2.45;;;9.70;99.90;;;8.20;65.20;102156.31;5175691;27;20029;-83
2024/04/21 08:59:40;;;;;;;5.03;2.45;;;;;;;8.51;65.85;102162.06;5093425;27;20025;-83
2024/04/21 09:02:12;;;;;;;5.20;2.70;;;10.00;99.90;;;8.81;65.23;102171.22;5102451;27;20017;-84
2024/04/21 09:04:50;;;;;;;3.17;1.73;;;10.10;99.90;;;8.79;65.45;102157.22;5112694;27;20036;-85
2024/04/21 09:07:31;;;;;;;6.30;3.38;;;10.30;99.90;;;8.71;66.34;102147.75;5125470;27;20043;-84
2024/04/21 09:09:57;;;;;;;6.03;2.90;;;10.20;99.90;;;8.58;64.56;102154.94;5105738;27;20028;-84
2024/04/21 09:12:33;;;;;;;;;;;;;;;;;;;;;
2024/04/21 09:15:00;;;;;;;4.53;2.50;;;10.30;99.90;;;8.98;66.26;102156.91;5150929;27;20011;-85
2024/04/21 09:17:29;;;;;;;5.93;3.20;;;10.40;99.90;;;8.95;64.47;102155.19;5096173;27;20051;-85
2024/04/21 09:20:21;;;;;;;5.93;2.55;;;10.40;99.90;;;8.93;63.98;102162.25;5117483;27;20011;-86
2024/04/21 09:23:28;;;;;;;3.95;2.55;;;;;;;8.46;62.85;102153.34;5065651;27;20006;-85
2024/04/21 09:25:59;;;;;;;3.70;2.58;;;10.10;99.90;;;8.40;63.53;102145.53;5105086;27;20607;-85
2024/04/21 09:28:26;;;;;;;5.03;2.75;;;;;;;8.59;62.49;102154.91;5129197;27;20713;-85
2024/04/21 09:31:00;;;;;;;8.05;3.08;;;;;;;9.10;62.53;102161.97;5092632;27;20026;-84
2024/04/21 09:33:38;;;;;;;5.80;2.53;;;;;;;9.55;62.11;102163.78;5112535;27;20015;-86
2024/04/21 09:36:08;;;;;;;4.45;2.67;;;;;;;9.54;60.50;102180.44;5134138;27;20022;-85
2024/04/21 09:39:00;;;;;;;3.65;2.20;;;10.80;99.90;;;9.13;62.23;102155.78;5100354;27;20747;-86
2024/04/21 09:41:38;;;;;;;4.97;2.70;;;10.60;99.90;;;8.74;63.67;102152.94;5090406;27;20008;-85
2024/04/21 09:44:08;;;;;;;4.28;2.40;;;;;;;8.28;63.51;102149.22;5053784;27;20025;-85
2024/04/21 09:46:42;;;;;;;2.40;1.73;;;9.70;99.90;;;7.58;64.87;102133.53;5061632;27;20014;-85
2024/04/21 09:49:21;;;;;;;2.40;1.58;;;9.50;99.90;;;7.34;64.58;102146.88;5080417;27;20525;-86
2024/04/21 09:51:48;;;;;;;3.35;1.80;;;;;;;7.02;64.92;102139.31;5041675;27;20054;-87
2024/04/21 09:54:19;;;;;;;3.63;1.48;;;8.60;99.90;;;6.33;67.96;102141.63;5068906;27;20017;-84
2024/04/21 09:56:58;;;;;;;2.67;1.20;;;;;;;5.57;72.42;102129.72;5167985;27;20466;-85
2024/04/21 09:59:32;;;;;;;5.13;1.35;;;7.60;99.90;;;5.04;75.21;102144.66;5158373;27;20022;-83
2024/04/21 10:02:09;;;;;;;3.17;1.58;;;7.10;99.90;;;4.75;77.08;102130.75;5169438;27;20980;-82
2024/04/21 10:08:21;;;;;;;2.65;1.10;;;6.50;99.90;;;4.65;79.38;102120.31;4856874;29;20445;-84
2024/04/21 10:11:22;;;;;;;2.63;1.40;;;;;;;4.68;78.45;102122.91;4871522;29;20006;-85
2024/04/21 10:14:50;;;;;;;2.95;1.45;;;6.30;99.90;;;4.78;78.50;102139.47;4866435;29;20003;-85
2024/04/21 10:18:26;;;;;;;3.97;1.80;;;6.30;99.90;;;4.79;78.98;102137.72;4825152;29;20395;-85
2024/04/21 10:21:08;;;;;;;7.13;1.77;;;;;;;4.83;78.67;102136.84;4790829;29;20082;-86
2024/04/21 10:27:04;;;;;;;2.30;1.60;;;;;;;5.10;78.38;102155.09;4348507;29;5003188;-85
2024/04/21 10:33:28;;;;;;;3.40;2.00;;;;;;;5.48;79.08;102168.97;5491926;25;20319;-86
2024/04/21 10:36:22;;;;;;;2.17;1.70;;;;;;;5.53;79.05;102165.47;5357420;26;20032;-86
2024/04/21 10:39:14;;;;;;;;;;;;;;;;;;;;;
2024/04/21 10:42:32;;;;;;;2.42;1.48;;;6.80;99.90;;;5.50;79.11;102156.75;5322132;26;20926;-85
2024/04/21 10:45:45;;;;;;;2.10;1.27;;;6.90;99.90;;;5.53;79.58;102156.78;5235689;26;20018;-85
2024/04/21 10:48:22;;;;;;;3.47;1.60;;;7.00;99.90;;;5.73;79.82;102157.56;5136824;27;20023;-84
2024/04/21 10:51:00;;;;;;;4.63;1.55;;;7.10;99.90;;;6.00;79.56;102160.09;5150054;27;20501;-84
2024/04/21 10:53:29;;;;;;;2.45;1.70;;;;;;;6.23;79.26;102160.84;5116175;27;20058;-83
2024/04/21 10:56:06;;;;;;;2.40;1.40;;;;;;;6.47;78.98;102161.59;5160168;27;20007;-86
2024/04/21 10:58:33;;;;;;;3.28;1.80;;;;;;;6.79;79.00;102158.75;5196486;27;20016;-84
2024/04/21 11:01:40;;;;;;;3.00;1.85;;;8.10;99.90;;;6.84;79.04;102154.31;5213978;27;20014;-84
2024/04/21 11:04:09;;;;;;;4.73;1.87;;;8.20;99.90;;;7.03;78.23;102162.91;5100476;27;20023;-83
2024/04/21 11:06:43;;;;;;;3.97;2.10;;;8.30;99.90;;;7.14;78.37;102154.94;5134250;27;20005;-83
2024/04/21 11:09:11;;;;;;;4.05;2.20;;;8.40;99.90;;;7.26;77.90;102159.22;5101853;27;20016;-83
2024/04/21 11:11:38;;;;;;;3.92;1.85;;;8.50;99.90;;;7.41;77.72;102169.53;5123638;27;20009;-83
2024/04/21 11:14:09;;;;;;;5.60;2.30;;;8.60;99.90;;;7.15;76.95;102165.41;5143627;27;20137;-84